createdAt,value
2023-02-02T00:01:30.303Z,101107.72
2023-02-02T00:03:57.706Z,101110.53
2023-02-02T00:06:26.124Z,101110.09
2023-02-02T00:08:53.304Z,101108.09
2023-02-02T00:11:20.034Z,101108.47
2023-02-02T00:13:46.937Z,101112.22
2023-02-02T00:16:28.949Z,101106.25
2023-02-02T00:19:00.121Z,101110.97
2023-02-02T00:21:27.257Z,101109.81
2023-02-02T00:23:53.939Z,101121.34
2023-02-02T00:26:20.855Z,101111.94
2023-02-02T00:28:48.194Z,101103.47
2023-02-02T00:31:14.882Z,101111.75
2023-02-02T00:33:45.668Z,101117.00
2023-02-02T00:36:12.360Z,101114.00
2023-02-02T00:38:38.895Z,101113.22
2023-02-02T00:41:05.964Z,101115.97
2023-02-02T00:43:32.904Z,101121.19
2023-02-02T00:45:59.714Z,101117.97
2023-02-02T00:48:26.367Z,101119.88
2023-02-02T00:50:53.508Z,101115.69
2023-02-02T00:53:20.061Z,101116.38
2023-02-02T00:55:47.253Z,101099.28
2023-02-02T00:58:13.821Z,101117.03
2023-02-02T01:00:40.600Z,101122.53
2023-02-02T01:03:08.231Z,101126.81
2023-02-02T01:05:35.025Z,101125.84
2023-02-02T01:08:01.698Z,101129.91
2023-02-02T01:10:28.476Z,101132.25
2023-02-02T01:12:55.091Z,101134.28
2023-02-02T01:15:21.851Z,101138.28
2023-02-02T01:17:49.208Z,101141.38
2023-02-02T01:20:18.944Z,101138.16
2023-02-02T01:22:46.655Z,101136.72
2023-02-02T01:25:13.640Z,101130.19
2023-02-02T01:27:40.269Z,101148.34
2023-02-02T01:30:07.558Z,101145.56
2023-02-02T01:32:34.190Z,101140.25
2023-02-02T01:35:00.841Z,101138.22
2023-02-02T01:37:27.398Z,101144.47
2023-02-02T01:39:54.009Z,101144.47
2023-02-02T01:42:22.607Z,101151.59
2023-02-02T01:45:25.490Z,101151.44
2023-02-02T01:47:57.661Z,101158.56
2023-02-02T01:50:29.792Z,101156.41
2023-02-02T01:52:58.722Z,101152.88
2023-02-02T01:55:28.502Z,101162.50
2023-02-02T01:57:59.490Z,101166.09
2023-02-02T02:00:27.791Z,101166.78
2023-02-02T02:02:58.784Z,101162.09
2023-02-02T02:05:36.333Z,101159.31
2023-02-02T02:08:10.536Z,101169.97
2023-02-02T02:10:37.380Z,101172.75
2023-02-02T02:13:04.711Z,101175.16
2023-02-02T02:16:04.987Z,101169.03
2023-02-02T02:18:45.121Z,101164.94
2023-02-02T02:21:44.296Z,101169.19
2023-02-02T02:25:16.388Z,101165.19
2023-02-02T02:28:10.453Z,101172.59
2023-02-02T02:30:49.230Z,101178.78
2023-02-02T02:33:20.005Z,101177.06
2023-02-02T02:36:22.184Z,101182.16
2023-02-02T02:39:21.507Z,101175.78
2023-02-02T02:41:57.851Z,101183.50
2023-02-02T02:44:26.636Z,101190.28
2023-02-02T02:46:55.115Z,101191.16
2023-02-02T02:49:21.830Z,101185.97
2023-02-02T02:51:50.988Z,101187.19
2023-02-02T02:54:30.945Z,101185.41
2023-02-02T02:57:26.868Z,101188.81
2023-02-02T03:00:34.828Z,101191.69
2023-02-02T03:03:37.147Z,101187.59
2023-02-02T03:06:21.727Z,101190.50
2023-02-02T03:08:55.154Z,101185.06
2023-02-02T03:11:22.175Z,101188.13
2023-02-02T03:13:49.135Z,101187.00
2023-02-02T03:16:16.790Z,101192.25
2023-02-02T03:18:44.153Z,101185.00
2023-02-02T03:21:11.250Z,101187.31
2023-02-02T03:23:38.714Z,101186.78
2023-02-02T03:26:06.332Z,101184.94
2023-02-02T03:28:33.148Z,101183.78
2023-02-02T03:31:01.534Z,101190.03
2023-02-02T03:33:28.549Z,101188.22
2023-02-02T03:35:55.164Z,101196.72
2023-02-02T03:38:21.698Z,101195.31
2023-02-02T03:40:48.297Z,101192.31
2023-02-02T03:43:20.447Z,101198.59
2023-02-02T03:45:47.026Z,101190.94
2023-02-02T03:48:13.627Z,101196.50
2023-02-02T03:50:40.218Z,101196.38
2023-02-02T03:53:06.781Z,101203.75
2023-02-02T03:55:33.407Z,101200.34
2023-02-02T03:58:00.003Z,101208.41
2023-02-02T04:00:26.734Z,101198.84
2023-02-02T04:02:53.858Z,101208.91
2023-02-02T04:05:20.454Z,101201.78
2023-02-02T04:07:49.084Z,101207.22
2023-02-02T04:10:16.114Z,101201.78
2023-02-02T04:12:42.742Z,101205.75
2023-02-02T04:15:09.650Z,101219.72
2023-02-02T04:17:36.504Z,101206.34
2023-02-02T04:20:06.633Z,101200.44
2023-02-02T04:22:33.845Z,101202.88
2023-02-02T04:25:00.387Z,101202.06
2023-02-02T04:27:27.019Z,101207.75
2023-02-02T04:29:53.585Z,101214.53
2023-02-02T04:32:20.186Z,101208.84
2023-02-02T04:34:46.824Z,101211.97
2023-02-02T04:37:13.481Z,101209.50
2023-02-02T04:39:40.163Z,101223.25
2023-02-02T04:42:06.774Z,101219.41
2023-02-02T04:44:33.674Z,101212.31
2023-02-02T04:47:00.318Z,101216.59
2023-02-02T04:49:27.065Z,101214.25
2023-02-02T04:51:53.619Z,101222.31
2023-02-02T04:54:20.213Z,101215.66
2023-02-02T04:56:47.004Z,101215.28
2023-02-02T04:59:13.555Z,101214.84
2023-02-02T05:01:40.108Z,101206.22
2023-02-02T05:04:06.718Z,101212.38
2023-02-02T05:06:33.312Z,101222.88
2023-02-02T05:09:01.109Z,101215.91
2023-02-02T05:11:27.780Z,101220.66
2023-02-02T05:13:55.411Z,101221.16
2023-02-02T05:16:23.615Z,101220.00
2023-02-02T05:18:55.203Z,101221.16
2023-02-02T05:21:22.473Z,101221.38
2023-02-02T05:23:49.199Z,101217.84
2023-02-02T05:26:24.769Z,101217.38
2023-02-02T05:28:51.873Z,101218.66
2023-02-02T05:31:19.822Z,101222.88
2023-02-02T05:33:46.482Z,101214.16
2023-02-02T05:36:13.358Z,101224.38
2023-02-02T05:38:39.964Z,101217.91
2023-02-02T05:41:06.680Z,101207.59
2023-02-02T05:43:33.784Z,101226.31
2023-02-02T05:46:00.917Z,101218.31
2023-02-02T05:48:28.348Z,101230.88
2023-02-02T05:51:11.308Z,101240.03
2023-02-02T05:53:38.110Z,101235.41
2023-02-02T05:56:05.009Z,101243.53
2023-02-02T05:58:31.646Z,101245.66
2023-02-02T06:00:58.189Z,101249.78
2023-02-02T06:03:24.931Z,101252.44
2023-02-02T06:05:51.625Z,101249.84
2023-02-02T06:08:18.234Z,101260.91
2023-02-02T06:10:44.999Z,101259.78
2023-02-02T06:13:11.841Z,101255.72
2023-02-02T06:15:38.627Z,101261.94
2023-02-02T06:18:08.356Z,101250.69
2023-02-02T06:20:35.790Z,101255.31
2023-02-02T06:23:02.483Z,101254.91
2023-02-02T06:25:29.132Z,101255.97
2023-02-02T06:27:59.629Z,101258.84
2023-02-02T06:30:27.573Z,101265.47
2023-02-02T06:32:55.362Z,101264.00
2023-02-02T06:35:22.280Z,101273.09
2023-02-02T06:37:49.181Z,101283.53
2023-02-02T06:40:16.293Z,101280.41
2023-02-02T06:42:42.917Z,101285.72
2023-02-02T06:45:10.182Z,101282.84
2023-02-02T06:47:36.817Z,101292.25
2023-02-02T06:50:04.159Z,101291.44
2023-02-02T06:52:30.875Z,101290.56
2023-02-02T06:54:57.442Z,101299.44
2023-02-02T06:57:24.111Z,101289.38
2023-02-02T06:59:51.159Z,101291.91
2023-02-02T07:02:17.850Z,101290.47
2023-02-02T07:04:44.479Z,101295.81
2023-02-02T07:07:11.045Z,101295.91
2023-02-02T07:09:37.872Z,101297.56
2023-02-02T07:12:04.484Z,101297.25
2023-02-02T07:14:31.083Z,101306.25
2023-02-02T07:16:57.722Z,101306.91
2023-02-02T07:19:24.343Z,101313.03
2023-02-02T07:21:50.984Z,101317.16
2023-02-02T07:24:17.735Z,101323.63
2023-02-02T07:26:44.326Z,101328.94
2023-02-02T07:29:14.330Z,101331.09
2023-02-02T07:31:41.561Z,101330.34
2023-02-02T07:34:08.344Z,101335.63
2023-02-02T07:36:35.610Z,101337.34
2023-02-02T07:39:04.684Z,101337.91
2023-02-02T07:41:32.197Z,101342.09
2023-02-02T07:43:58.808Z,101349.28
2023-02-02T07:46:25.387Z,101340.53
2023-02-02T07:48:55.613Z,101348.78
2023-02-02T07:51:22.696Z,101341.78
2023-02-02T07:53:52.205Z,101350.63
2023-02-02T07:56:21.516Z,101348.03
2023-02-02T07:58:48.626Z,101356.41
2023-02-02T08:01:16.258Z,101358.38
2023-02-02T08:03:43.546Z,101350.78
2023-02-02T08:06:28.705Z,101361.28
2023-02-02T08:08:55.939Z,101355.94
2023-02-02T08:11:32.545Z,101364.19
2023-02-02T08:14:02.220Z,101362.00
2023-02-02T08:16:31.250Z,101356.41
2023-02-02T08:18:58.599Z,101369.56
2023-02-02T08:21:25.443Z,101370.19
2023-02-02T08:23:53.947Z,101369.41
2023-02-02T08:26:28.097Z,101364.31
2023-02-02T08:28:59.672Z,101374.13
2023-02-02T08:31:35.483Z,101367.47
2023-02-02T08:34:03.809Z,101370.63
2023-02-02T08:36:31.109Z,101377.69
2023-02-02T08:39:10.044Z,101372.31
2023-02-02T08:41:39.581Z,101379.88
2023-02-02T08:44:09.416Z,101381.97
2023-02-02T08:46:37.981Z,101386.59
2023-02-02T08:49:04.686Z,101390.44
2023-02-02T08:51:31.288Z,101385.28
2023-02-02T08:53:57.891Z,101395.03
2023-02-02T08:56:24.575Z,101394.63
2023-02-02T08:58:56.454Z,101400.38
2023-02-02T09:01:26.184Z,101407.06
2023-02-02T09:04:16.114Z,101404.97
2023-02-02T09:06:43.672Z,101415.03
2023-02-02T09:09:15.866Z,101418.88
2023-02-02T09:11:43.272Z,101424.44
2023-02-02T09:14:14.477Z,101431.53
2023-02-02T09:16:41.807Z,101436.25
2023-02-02T09:19:09.947Z,101429.47
2023-02-02T09:21:37.298Z,101435.59
2023-02-02T09:24:10.236Z,101440.78
2023-02-02T09:26:38.605Z,101438.50
2023-02-02T09:29:07.042Z,101436.81
2023-02-02T09:31:35.619Z,101447.13
2023-02-02T09:34:05.218Z,101460.22
2023-02-02T09:36:32.267Z,101457.69
2023-02-02T09:38:59.153Z,101466.34
2023-02-02T09:41:38.079Z,101474.63
2023-02-02T09:44:23.686Z,101469.69
2023-02-02T09:47:24.470Z,101475.13
2023-02-02T09:49:56.992Z,101478.66
2023-02-02T09:52:26.034Z,101476.16
2023-02-02T09:54:59.552Z,101472.88
2023-02-02T09:57:31.993Z,101483.34
2023-02-02T09:59:59.182Z,101477.38
2023-02-02T10:02:40.004Z,101500.03
2023-02-02T10:05:34.601Z,101505.03
2023-02-02T10:08:05.960Z,101499.47
2023-02-02T10:10:39.277Z,101499.09
2023-02-02T10:13:13.818Z,101501.06
2023-02-02T10:16:01.556Z,101495.44
2023-02-02T10:18:42.568Z,101500.19
2023-02-02T10:21:35.562Z,101501.16
2023-02-02T10:24:03.678Z,101509.19
2023-02-02T10:26:46.228Z,101505.66
2023-02-02T10:29:22.102Z,101507.56
2023-02-02T10:32:03.940Z,101512.44
2023-02-02T10:35:11.073Z,101518.19
2023-02-02T10:37:54.151Z,101525.09
2023-02-02T10:40:45.202Z,101525.34
2023-02-02T10:43:45.960Z,101534.31
2023-02-02T10:46:31.653Z,101535.28
2023-02-02T10:49:33.207Z,101523.88
2023-02-02T10:52:11.059Z,101528.22
2023-02-02T10:54:58.200Z,101533.19
2023-02-02T10:57:52.895Z,101531.47
2023-02-02T11:00:23.145Z,101531.47
2023-02-02T11:02:51.491Z,101527.97
2023-02-02T11:05:42.244Z,101526.72
2023-02-02T11:08:37.604Z,101529.16
2023-02-02T11:11:35.202Z,101530.94
2023-02-02T11:14:11.325Z,101531.63
2023-02-02T11:16:44.377Z,101536.66
2023-02-02T11:19:17.365Z,101535.91
2023-02-02T11:21:48.954Z,101533.25
2023-02-02T11:24:19.317Z,101527.34
2023-02-02T11:26:49.334Z,101532.47
2023-02-02T11:29:28.092Z,101532.47
2023-02-02T11:31:54.757Z,101536.84
2023-02-02T11:34:28.419Z,101531.97
2023-02-02T11:37:04.161Z,101534.88
2023-02-02T11:39:30.893Z,101538.00
2023-02-02T11:42:04.122Z,101538.09
2023-02-02T11:44:32.568Z,101544.56
2023-02-02T11:47:00.640Z,101541.03
2023-02-02T11:49:28.469Z,101536.31
2023-02-02T11:52:04.987Z,101542.91
2023-02-02T11:54:37.950Z,101543.94
2023-02-02T11:57:08.984Z,101553.22
2023-02-02T11:59:43.502Z,101547.00
2023-02-02T12:02:13.517Z,101553.13
2023-02-02T12:04:40.856Z,101557.63
2023-02-02T12:07:22.565Z,101562.78
2023-02-02T12:09:50.360Z,101548.56
2023-02-02T12:12:38.622Z,101553.44
2023-02-02T12:15:34.519Z,101559.91
2023-02-02T12:18:30.483Z,101562.44
2023-02-02T12:21:04.809Z,101564.25
2023-02-02T12:24:05.562Z,101560.66
2023-02-02T12:26:37.128Z,101558.50
2023-02-02T12:29:25.312Z,101569.84
2023-02-02T12:32:18.834Z,101555.50
2023-02-02T12:35:21.653Z,101553.13
2023-02-02T12:37:51.010Z,101563.72
2023-02-02T12:40:31.406Z,101546.59
2023-02-02T12:43:17.108Z,101553.72
2023-02-02T12:46:12.343Z,101553.97
2023-02-02T12:49:07.170Z,101550.41
2023-02-02T12:52:06.021Z,101550.75
2023-02-02T12:54:49.629Z,101548.63
2023-02-02T12:57:46.696Z,101549.72
2023-02-02T13:00:26.314Z,101546.53
2023-02-02T13:03:13.036Z,101555.00
2023-02-02T13:05:39.785Z,101549.16
2023-02-02T13:08:14.840Z,101544.94
2023-02-02T13:10:55.480Z,101560.28
2023-02-02T13:13:32.782Z,101563.03
2023-02-02T13:16:06.426Z,101568.13
2023-02-02T13:18:41.118Z,101557.06
2023-02-02T13:21:15.360Z,101563.25
2023-02-02T13:23:51.612Z,101564.78
2023-02-02T13:26:21.195Z,101566.03
2023-02-02T13:28:50.851Z,101564.47
2023-02-02T13:31:23.007Z,101567.59
2023-02-02T13:34:07.111Z,101563.03
2023-02-02T13:36:37.521Z,101567.66
2023-02-02T13:39:16.237Z,101565.34
2023-02-02T13:41:43.931Z,101555.28
2023-02-02T13:44:38.404Z,101565.88
2023-02-02T13:47:11.736Z,101570.25
2023-02-02T13:49:43.651Z,101572.94
2023-02-02T13:52:41.484Z,101570.50
2023-02-02T13:55:47.160Z,101565.75
2023-02-02T13:58:20.658Z,101572.06
2023-02-02T14:00:54.188Z,101570.09
2023-02-02T14:03:38.234Z,101570.81
2023-02-02T14:06:12.388Z,101572.63
2023-02-02T14:08:46.743Z,101574.47
2023-02-02T14:11:33.638Z,101567.72
2023-02-02T14:14:33.486Z,101574.03
2023-02-02T14:17:23.062Z,101587.31
2023-02-02T14:19:51.053Z,101585.72
2023-02-02T14:22:37.666Z,101578.94
2023-02-02T14:25:29.994Z,101590.06
2023-02-02T14:28:03.285Z,101583.44
2023-02-02T14:30:38.627Z,101584.13
2023-02-02T14:33:20.602Z,101591.09
2023-02-02T14:35:47.307Z,101586.28
2023-02-02T14:38:23.029Z,101591.50
2023-02-02T14:40:55.714Z,101588.13
2023-02-02T14:43:45.043Z,101593.13
2023-02-02T14:46:14.792Z,101589.16
2023-02-02T14:48:49.754Z,101594.03
2023-02-02T14:51:18.881Z,101589.34
2023-02-02T14:53:55.299Z,101597.00
2023-02-02T14:56:38.407Z,101604.63
2023-02-02T14:59:07.352Z,101607.97
2023-02-02T15:01:37.931Z,101603.69
2023-02-02T15:04:20.105Z,101600.72
2023-02-02T15:06:48.544Z,101605.16
2023-02-02T15:09:41.146Z,101602.56
2023-02-02T15:12:10.819Z,101604.25
2023-02-02T15:14:41.236Z,101615.16
2023-02-02T15:17:21.869Z,101616.19
2023-02-02T15:19:54.290Z,101623.97
2023-02-02T15:22:30.239Z,101617.41
2023-02-02T15:25:00.587Z,101617.81
2023-02-02T15:27:27.977Z,101620.41
2023-02-02T15:30:02.378Z,101627.16
2023-02-02T15:32:30.585Z,101617.50
2023-02-02T15:35:15.025Z,101613.88
2023-02-02T15:37:46.783Z,101623.59
2023-02-02T15:40:16.703Z,101628.00
2023-02-02T15:42:53.049Z,101625.03
2023-02-02T15:45:29.069Z,101627.41
2023-02-02T15:47:58.029Z,101637.25
2023-02-02T15:50:25.737Z,101633.97
2023-02-02T15:52:55.468Z,101637.31
2023-02-02T15:55:35.067Z,101642.47
2023-02-02T15:58:32.469Z,101637.03
2023-02-02T16:01:03.219Z,101630.56
2023-02-02T16:03:37.705Z,101634.09
2023-02-02T16:06:07.297Z,101630.88
2023-02-02T16:08:36.352Z,101641.69
2023-02-02T16:11:19.988Z,101645.00
2023-02-02T16:13:59.019Z,101638.16
2023-02-02T16:16:32.131Z,101633.44
2023-02-02T16:19:16.552Z,101636.47
2023-02-02T16:22:04.417Z,101635.03
2023-02-02T16:24:34.565Z,101633.16
2023-02-02T16:27:06.781Z,101625.81
2023-02-02T16:29:39.260Z,101618.16
2023-02-02T16:32:06.916Z,101635.84
2023-02-02T16:34:50.180Z,101631.88
2023-02-02T16:37:33.867Z,101634.09
2023-02-02T16:40:29.671Z,101639.03
2023-02-02T16:43:07.941Z,101639.28
2023-02-02T16:45:40.019Z,101643.81
2023-02-02T16:48:35.585Z,101642.34
2023-02-02T16:51:17.909Z,101646.56
2023-02-02T16:53:48.810Z,101647.59
2023-02-02T16:56:43.549Z,101650.69
2023-02-02T16:59:24.862Z,101654.66
2023-02-02T17:01:55.985Z,101655.13
2023-02-02T17:04:28.906Z,101647.59
2023-02-02T17:07:04.822Z,101648.09
2023-02-02T17:09:41.067Z,101643.31
2023-02-02T17:12:32.118Z,101648.53
2023-02-02T17:15:06.168Z,101646.47
2023-02-02T17:17:33.158Z,101657.94
2023-02-02T17:20:00.219Z,101648.59
2023-02-02T17:22:29.889Z,101664.03
2023-02-02T17:24:56.949Z,101659.69
2023-02-02T17:27:27.101Z,101658.44
2023-02-02T17:29:54.407Z,101652.38
2023-02-02T17:32:21.448Z,101656.16
2023-02-02T17:34:48.326Z,101651.47
2023-02-02T17:37:15.616Z,101660.53
2023-02-02T17:39:42.527Z,101659.25
2023-02-02T17:42:27.312Z,101653.63
2023-02-02T17:44:54.186Z,101656.06
2023-02-02T17:47:21.105Z,101657.13
2023-02-02T17:49:48.000Z,101658.25
2023-02-02T17:52:15.004Z,101660.84
2023-02-02T17:54:42.056Z,101661.84
2023-02-02T17:57:08.825Z,101656.88
2023-02-02T17:59:35.676Z,101661.16
2023-02-02T18:02:02.546Z,101655.25
2023-02-02T18:04:29.474Z,101653.75
2023-02-02T18:06:56.319Z,101648.72
2023-02-02T18:09:23.348Z,101643.63
2023-02-02T18:11:50.292Z,101647.09
2023-02-02T18:14:17.188Z,101638.94
2023-02-02T18:16:44.024Z,101637.63
2023-02-02T18:19:10.868Z,101642.22
2023-02-02T18:21:37.843Z,101640.28
2023-02-02T18:24:08.284Z,101637.63
2023-02-02T18:26:35.737Z,101631.97
2023-02-02T18:29:02.845Z,101628.59
2023-02-02T18:31:29.974Z,101626.66
2023-02-02T18:33:56.831Z,101633.06
2023-02-02T18:36:23.918Z,101632.09
2023-02-02T18:38:51.631Z,101631.59
2023-02-02T18:41:21.581Z,101629.50
2023-02-02T18:43:48.547Z,101623.38
2023-02-02T18:46:17.270Z,101627.44
2023-02-02T18:48:44.995Z,101633.28
2023-02-02T18:51:18.064Z,101621.75
2023-02-02T18:53:46.374Z,101625.31
2023-02-02T18:56:14.709Z,101629.72
2023-02-02T18:58:42.034Z,101621.78
2023-02-02T19:01:10.763Z,101622.78
2023-02-02T19:03:37.812Z,101625.44
2023-02-02T19:06:24.395Z,101627.88
2023-02-02T19:08:51.406Z,101625.44
2023-02-02T19:11:21.736Z,101630.09
2023-02-02T19:13:49.088Z,101626.00
2023-02-02T19:16:29.037Z,101628.31
2023-02-02T19:18:58.111Z,101630.31
2023-02-02T19:21:29.692Z,101624.09
2023-02-02T19:23:57.002Z,101625.94
2023-02-02T19:26:26.516Z,101629.34
2023-02-02T19:28:59.570Z,101632.09
2023-02-02T19:31:26.564Z,101631.13
2023-02-02T19:33:53.745Z,101631.06
2023-02-02T19:36:27.649Z,101628.22
2023-02-02T19:39:17.079Z,101624.16
2023-02-02T19:41:44.307Z,101639.19
2023-02-02T19:44:18.643Z,101643.91
2023-02-02T19:46:49.582Z,101643.63
2023-02-02T19:49:33.047Z,101639.94
2023-02-02T19:52:06.261Z,101644.47
2023-02-02T19:54:38.277Z,101646.66
2023-02-02T19:57:33.169Z,101645.81
2023-02-02T20:00:11.235Z,101647.56
2023-02-02T20:03:00.826Z,101640.00
2023-02-02T20:05:32.551Z,101633.28
2023-02-02T20:08:06.980Z,101633.41
2023-02-02T20:10:46.021Z,101633.84
2023-02-02T20:13:20.187Z,101635.41
2023-02-02T20:15:47.830Z,101622.91
2023-02-02T20:18:19.220Z,101625.44
2023-02-02T20:20:53.159Z,101628.97
2023-02-02T20:23:25.952Z,101633.41
2023-02-02T20:25:52.686Z,101632.94
2023-02-02T20:28:33.957Z,101634.59
2023-02-02T20:31:05.676Z,101637.41
2023-02-02T20:33:33.316Z,101633.09
2023-02-02T20:36:02.512Z,101635.78
2023-02-02T20:38:38.125Z,101632.75
2023-02-02T20:41:05.812Z,101635.69
2023-02-02T20:43:35.662Z,101627.19
2023-02-02T20:46:02.563Z,101625.94
2023-02-02T20:48:29.218Z,101631.97
2023-02-02T20:50:55.803Z,101622.09
2023-02-02T20:53:22.640Z,101630.78
2023-02-02T20:55:49.229Z,101622.00
2023-02-02T20:58:15.781Z,101628.22
2023-02-02T21:00:42.520Z,101624.41
2023-02-02T21:03:09.219Z,101636.47
2023-02-02T21:05:35.865Z,101630.22
2023-02-02T21:08:02.749Z,101621.53
2023-02-02T21:10:29.457Z,101613.78
2023-02-02T21:12:56.271Z,101620.25
2023-02-02T21:15:23.489Z,101628.72
2023-02-02T21:17:50.091Z,101630.41
2023-02-02T21:20:16.955Z,101637.94
2023-02-02T21:22:43.779Z,101630.59
2023-02-02T21:25:12.021Z,101636.03
2023-02-02T21:27:41.248Z,101637.94
2023-02-02T21:30:12.342Z,101643.81
2023-02-02T21:32:39.141Z,101642.72
2023-02-02T21:35:06.597Z,101644.09
2023-02-02T21:37:36.670Z,101643.72
2023-02-02T21:40:14.166Z,101644.16
2023-02-02T21:42:47.320Z,101644.38
2023-02-02T21:45:22.804Z,101650.88
2023-02-02T21:47:53.755Z,101647.66
2023-02-02T21:50:28.929Z,101636.84
2023-02-02T21:53:14.280Z,101639.00
2023-02-02T21:55:41.807Z,101633.13
2023-02-02T21:58:32.253Z,101637.81
2023-02-02T22:01:14.569Z,101634.25
2023-02-02T22:03:46.480Z,101631.13
2023-02-02T22:06:22.251Z,101630.28
2023-02-02T22:08:50.594Z,101625.03
2023-02-02T22:11:37.580Z,101635.78
2023-02-02T22:14:21.601Z,101628.34
2023-02-02T22:16:53.562Z,101622.28
2023-02-02T22:19:28.229Z,101612.41
2023-02-02T22:22:12.182Z,101613.72
2023-02-02T22:24:38.962Z,101612.28
2023-02-02T22:27:18.353Z,101618.88
2023-02-02T22:29:45.317Z,101619.84
2023-02-02T22:32:11.889Z,101624.53
2023-02-02T22:34:38.513Z,101626.41
2023-02-02T22:37:05.077Z,101613.06
2023-02-02T22:39:31.647Z,101602.41
2023-02-02T22:41:58.156Z,101587.25
2023-02-02T22:44:24.770Z,101570.31
2023-02-02T22:46:51.309Z,101583.44
2023-02-02T22:49:17.880Z,101585.47
2023-02-02T22:51:44.414Z,101577.44
2023-02-02T22:54:11.020Z,101581.75
2023-02-02T22:56:37.651Z,101597.00
2023-02-02T22:59:04.421Z,101590.28
2023-02-02T23:01:31.057Z,101598.09
2023-02-02T23:07:13.077Z,101615.16
2023-02-02T23:09:39.639Z,101617.72
2023-02-02T23:12:06.539Z,101622.25
2023-02-02T23:14:33.181Z,101601.50
2023-02-02T23:16:59.779Z,101605.75
2023-02-02T23:19:26.417Z,101595.97
2023-02-02T23:21:53.037Z,101577.06
2023-02-02T23:24:19.744Z,101581.00
2023-02-02T23:26:46.476Z,101579.41
2023-02-02T23:29:13.159Z,101577.25
2023-02-02T23:31:39.743Z,101585.72
2023-02-02T23:34:06.363Z,101584.31
2023-02-02T23:36:32.987Z,101573.84
2023-02-02T23:38:59.542Z,101566.34
2023-02-02T23:41:26.312Z,101559.59
2023-02-02T23:43:53.204Z,101547.31
2023-02-02T23:46:20.193Z,101543.47
2023-02-02T23:48:47.207Z,101540.66
2023-02-02T23:51:14.362Z,101542.16
2023-02-02T23:53:42.588Z,101548.84
2023-02-02T23:56:09.786Z,101542.56
2023-02-02T23:58:36.511Z,101537.91
